createdAt,value
2022-12-19T00:00:46.261Z,18.03
2022-12-19T00:03:16.254Z,18.87
2022-12-19T00:05:44.643Z,18.77
2022-12-19T00:08:18.167Z,19.27
2022-12-19T00:10:57.222Z,18.03
2022-12-19T00:13:27.151Z,16.97
2022-12-19T00:16:01.713Z,17.80
2022-12-19T00:18:30.180Z,17.40
2022-12-19T00:21:01.137Z,17.87
2022-12-19T00:23:31.593Z,17.63
2022-12-19T00:26:11.684Z,18.07
2022-12-19T00:28:40.214Z,17.97
2022-12-19T00:31:08.765Z,19.93
2022-12-19T00:33:37.889Z,17.37
2022-12-19T00:36:16.902Z,18.40
2022-12-19T00:38:52.153Z,19.07
2022-12-19T00:41:25.192Z,18.17
2022-12-19T00:43:54.849Z,18.13
2022-12-19T00:46:23.218Z,17.80
2022-12-19T00:48:51.509Z,17.70
2022-12-19T00:51:22.094Z,18.63
2022-12-19T00:53:51.760Z,19.27
2022-12-19T00:56:25.912Z,19.10
2022-12-19T00:58:55.152Z,17.53
2022-12-19T01:01:51.310Z,17.77
2022-12-19T01:04:29.154Z,17.57
2022-12-19T01:07:01.906Z,18.93
2022-12-19T01:09:33.729Z,17.50
2022-12-19T01:12:24.421Z,18.70
2022-12-19T01:14:57.750Z,17.87
2022-12-19T01:17:44.004Z,18.10
2022-12-19T01:20:15.117Z,17.37
2022-12-19T01:22:43.410Z,19.33
2022-12-19T01:25:15.835Z,18.43
2022-12-19T01:27:45.476Z,18.80
2022-12-19T01:30:14.946Z,18.20
2022-12-19T01:32:43.611Z,18.23
2022-12-19T01:35:17.358Z,18.27
2022-12-19T01:37:50.104Z,19.27
2022-12-19T01:40:18.658Z,18.10
2022-12-19T01:42:49.140Z,17.00
2022-12-19T01:45:33.823Z,19.33
2022-12-19T01:48:20.295Z,17.73
2022-12-19T01:51:01.073Z,18.47
2022-12-19T01:53:45.173Z,18.77
2022-12-19T01:56:21.093Z,18.27
2022-12-19T01:58:59.387Z,18.83
2022-12-19T02:01:41.507Z,18.30
2022-12-19T02:04:24.499Z,18.57
2022-12-19T02:06:55.137Z,17.43
2022-12-19T02:09:25.632Z,18.40
2022-12-19T02:11:54.897Z,18.40
2022-12-19T02:14:24.912Z,18.07
2022-12-19T02:17:00.485Z,17.03
2022-12-19T02:20:16.782Z,18.07
2022-12-19T02:23:07.579Z,17.53
2022-12-19T02:26:06.653Z,17.53
2022-12-19T02:28:58.614Z,17.20
2022-12-19T02:31:32.658Z,18.50
2022-12-19T02:34:11.551Z,18.60
2022-12-19T02:36:52.891Z,19.80
2022-12-19T02:39:28.218Z,17.83
2022-12-19T02:42:00.856Z,18.40
2022-12-19T02:44:35.017Z,18.33
2022-12-19T02:47:06.885Z,16.83
2022-12-19T02:49:39.641Z,19.27
2022-12-19T02:52:12.671Z,17.23
2022-12-19T02:54:44.955Z,17.90
2022-12-19T02:57:21.456Z,18.17
2022-12-19T03:00:05.357Z,16.43
2022-12-19T03:03:00.229Z,16.37
2022-12-19T03:05:37.243Z,17.53
2022-12-19T03:08:14.219Z,19.70
2022-12-19T03:10:46.939Z,18.67
2022-12-19T03:13:20.777Z,18.70
2022-12-19T03:15:51.067Z,19.67
2022-12-19T03:18:21.349Z,17.43
2022-12-19T03:20:54.111Z,19.43
2022-12-19T03:23:23.095Z,18.57
2022-12-19T03:25:55.425Z,17.10
2022-12-19T03:28:28.909Z,17.77
2022-12-19T03:31:00.143Z,18.03
2022-12-19T03:33:33.807Z,18.73
2022-12-19T03:36:07.673Z,18.23
2022-12-19T03:38:39.265Z,18.80
2022-12-19T03:41:10.164Z,17.93
2022-12-19T03:43:40.052Z,20.03
2022-12-19T03:46:17.435Z,19.60
2022-12-19T03:48:50.239Z,17.93
2022-12-19T03:51:30.533Z,18.70
2022-12-19T03:54:04.646Z,19.13
2022-12-19T03:56:39.554Z,18.57
2022-12-19T03:59:12.439Z,18.67
2022-12-19T04:01:42.464Z,19.90
2022-12-19T04:04:13.161Z,19.67
2022-12-19T04:06:43.711Z,20.00
2022-12-19T04:09:15.679Z,19.20
2022-12-19T04:11:52.277Z,20.20
2022-12-19T04:14:26.746Z,18.50
2022-12-19T04:17:05.327Z,19.07
2022-12-19T04:19:43.944Z,18.70
2022-12-19T04:22:17.946Z,19.73
2022-12-19T04:24:51.096Z,20.43
2022-12-19T04:27:23.837Z,16.93
2022-12-19T04:29:56.256Z,19.47
2022-12-19T04:32:26.667Z,17.57
2022-12-19T04:34:56.375Z,18.40
2022-12-19T04:37:24.628Z,18.93
2022-12-19T04:39:53.029Z,18.43
2022-12-19T04:42:21.555Z,17.77
2022-12-19T04:44:49.827Z,19.37
2022-12-19T04:47:18.114Z,20.03
2022-12-19T04:49:46.529Z,19.07
2022-12-19T04:52:16.153Z,18.83
2022-12-19T04:54:44.420Z,18.87
2022-12-19T04:57:12.733Z,20.57
2022-12-19T04:59:41.858Z,17.80
2022-12-19T05:02:10.193Z,17.87
2022-12-19T05:04:38.570Z,19.13
2022-12-19T05:07:06.845Z,19.93
2022-12-19T05:09:36.464Z,18.97
2022-12-19T05:12:05.436Z,19.93
2022-12-19T05:14:33.774Z,20.83
2022-12-19T05:17:02.105Z,20.37
2022-12-19T05:19:30.552Z,18.57
2022-12-19T05:21:59.251Z,19.10
2022-12-19T05:24:27.680Z,19.53
2022-12-19T05:26:57.315Z,19.13
2022-12-19T05:29:25.791Z,19.27
2022-12-19T05:31:54.515Z,19.27
2022-12-19T05:34:22.886Z,20.17
2022-12-19T05:36:51.212Z,19.40
2022-12-19T05:39:19.884Z,20.33
2022-12-19T05:41:49.319Z,18.93
2022-12-19T05:44:19.053Z,21.27
2022-12-19T05:46:47.793Z,20.17
2022-12-19T05:49:16.292Z,19.67
2022-12-19T05:51:47.766Z,20.23
2022-12-19T05:54:16.410Z,19.57
2022-12-19T05:56:44.960Z,19.73
2022-12-19T05:59:13.273Z,18.40
2022-12-19T06:01:43.492Z,19.80
2022-12-19T06:04:11.862Z,20.03
2022-12-19T06:06:40.235Z,20.70
2022-12-19T06:09:08.547Z,20.27
2022-12-19T06:11:36.818Z,19.27
2022-12-19T06:14:05.138Z,22.27
2022-12-19T06:16:33.462Z,20.00
2022-12-19T06:19:03.173Z,19.33
2022-12-19T06:21:31.448Z,20.63
2022-12-19T06:24:00.004Z,20.07
2022-12-19T06:26:28.532Z,19.87
2022-12-19T06:28:57.283Z,19.03
2022-12-19T06:31:26.308Z,19.67
2022-12-19T06:33:56.870Z,21.43
2022-12-19T06:36:28.683Z,18.67
2022-12-19T06:39:00.174Z,19.70
2022-12-19T06:41:46.342Z,19.63
2022-12-19T06:44:17.116Z,19.33
2022-12-19T06:46:45.862Z,18.67
2022-12-19T06:49:14.350Z,18.93
2022-12-19T06:51:44.530Z,19.17
2022-12-19T06:54:13.696Z,20.77
2022-12-19T06:56:44.134Z,19.00
2022-12-19T06:59:15.433Z,18.63
2022-12-19T07:01:57.808Z,18.87
2022-12-19T07:04:34.380Z,19.13
2022-12-19T07:07:11.462Z,20.97
2022-12-19T07:09:40.136Z,21.20
2022-12-19T07:12:09.055Z,19.17
2022-12-19T07:14:37.778Z,19.63
2022-12-19T07:17:06.618Z,20.37
2022-12-19T07:19:36.279Z,20.67
2022-12-19T07:22:05.948Z,19.83
2022-12-19T07:24:36.785Z,19.97
2022-12-19T07:27:05.407Z,19.97
2022-12-19T07:29:33.659Z,19.20
2022-12-19T07:32:01.961Z,18.73
2022-12-19T07:34:30.722Z,21.17
2022-12-19T07:36:58.980Z,20.20
2022-12-19T07:39:27.647Z,19.17
2022-12-19T07:41:57.351Z,21.50
2022-12-19T07:44:40.031Z,20.53
2022-12-19T07:47:11.379Z,20.20
2022-12-19T07:49:39.679Z,20.80
2022-12-19T07:52:08.439Z,20.03
2022-12-19T07:54:36.698Z,20.50
2022-12-19T07:57:06.338Z,21.63
2022-12-19T07:59:39.112Z,20.60
2022-12-19T08:02:08.212Z,20.33
2022-12-19T08:04:36.635Z,20.83
2022-12-19T08:07:05.188Z,20.83
2022-12-19T08:09:33.626Z,21.03
2022-12-19T08:12:01.995Z,20.63
2022-12-19T08:14:31.634Z,18.80
2022-12-19T08:19:48.540Z,19.23
2022-12-19T08:22:16.814Z,20.50
2022-12-19T08:24:45.438Z,20.33
2022-12-19T08:27:13.679Z,21.17
2022-12-19T08:29:43.396Z,19.47
2022-12-19T08:32:15.625Z,20.83
2022-12-19T08:34:47.155Z,20.53
2022-12-19T08:37:15.420Z,20.27
2022-12-19T08:39:43.701Z,22.67
2022-12-19T08:42:12.006Z,20.00
2022-12-19T08:44:40.309Z,20.90
2022-12-19T08:47:09.889Z,21.53
2022-12-19T08:49:38.183Z,21.40
2022-12-19T08:52:06.492Z,20.20
2022-12-19T08:54:35.010Z,21.77
2022-12-19T08:57:03.328Z,20.57
2022-12-19T08:59:32.418Z,19.37
2022-12-19T09:02:01.813Z,21.03
2022-12-19T09:05:57.825Z,19.40
2022-12-19T09:07:20.001Z,21.43
2022-12-19T09:09:48.504Z,20.47
2022-12-19T09:12:17.524Z,20.63
2022-12-19T09:14:45.992Z,20.43
2022-12-19T09:17:14.385Z,19.17
2022-12-19T09:19:47.973Z,20.57
2022-12-19T09:22:17.512Z,21.27
2022-12-19T09:24:45.784Z,21.00
2022-12-19T09:27:14.617Z,21.10
2022-12-19T09:29:43.756Z,21.03
2022-12-19T09:32:12.467Z,20.23
2022-12-19T09:34:47.255Z,21.43
2022-12-19T09:37:17.668Z,20.73
2022-12-19T09:39:47.304Z,20.70
2022-12-19T09:42:59.363Z,20.47
2022-12-19T09:45:44.513Z,21.77
2022-12-19T09:48:23.939Z,21.57
2022-12-19T09:51:09.237Z,20.77
2022-12-19T09:53:54.522Z,20.50
2022-12-19T09:56:28.265Z,21.67
2022-12-19T09:59:03.614Z,22.03
2022-12-19T10:01:38.899Z,22.10
2022-12-19T10:04:13.512Z,21.27
2022-12-19T10:07:15.773Z,20.90
2022-12-19T10:11:37.255Z,20.87
2022-12-19T10:12:52.940Z,21.63
2022-12-19T10:15:31.119Z,20.87
2022-12-19T10:18:30.764Z,20.40
2022-12-19T10:21:08.247Z,22.03
2022-12-19T10:24:18.998Z,21.57
2022-12-19T10:26:52.567Z,20.60
2022-12-19T10:29:47.604Z,21.17
2022-12-19T10:32:25.369Z,21.50
2022-12-19T10:34:54.942Z,21.47
2022-12-19T10:37:37.590Z,21.53
2022-12-19T10:40:27.584Z,21.53
2022-12-19T10:43:10.425Z,21.27
2022-12-19T10:45:46.969Z,22.33
2022-12-19T10:48:25.709Z,21.97
2022-12-19T10:51:06.263Z,22.37
2022-12-19T10:53:35.433Z,22.57
2022-12-19T10:56:15.510Z,22.00
2022-12-19T10:58:45.755Z,21.13
2022-12-19T11:01:17.477Z,22.33
2022-12-19T11:03:50.990Z,20.73
2022-12-19T11:06:51.147Z,22.90
2022-12-19T11:09:27.686Z,22.57
2022-12-19T11:16:09.533Z,22.30
2022-12-19T11:19:16.583Z,23.57
2022-12-19T11:25:43.461Z,22.13
2022-12-19T11:29:44.966Z,22.47
2022-12-19T11:29:54.826Z,22.07
2022-12-19T11:30:46.766Z,22.33
2022-12-19T11:32:43.632Z,21.47
2022-12-19T11:35:24.852Z,20.57
2022-12-19T11:37:57.742Z,22.73
2022-12-19T11:40:35.213Z,21.33
2022-12-19T11:43:43.025Z,21.90
2022-12-19T11:46:06.937Z,22.03
2022-12-19T11:48:42.558Z,21.87
2022-12-19T11:51:22.274Z,20.97
2022-12-19T11:53:58.119Z,22.60
2022-12-19T11:56:27.969Z,20.57
2022-12-19T11:59:00.987Z,21.03
2022-12-19T12:01:52.330Z,22.03
2022-12-19T12:04:56.545Z,20.60
2022-12-19T12:07:43.963Z,20.77
2022-12-19T12:14:55.892Z,21.97
2022-12-19T12:21:44.232Z,21.67
2022-12-19T12:28:32.365Z,20.67
2022-12-19T12:31:01.482Z,21.53
2022-12-19T12:31:13.773Z,21.10
2022-12-19T12:31:18.282Z,20.10
2022-12-19T12:31:52.361Z,20.00
2022-12-19T12:35:40.782Z,20.13
2022-12-19T12:41:09.781Z,21.03
2022-12-19T12:43:58.327Z,20.83
2022-12-19T12:46:33.091Z,21.17
2022-12-19T12:49:06.484Z,19.80
2022-12-19T12:51:36.949Z,21.53
2022-12-19T12:54:11.584Z,20.53
2022-12-19T12:56:40.714Z,20.80
2022-12-19T12:59:25.875Z,19.53
2022-12-19T13:01:56.285Z,18.50
2022-12-19T13:04:33.093Z,18.23
2022-12-19T13:07:36.266Z,19.23
2022-12-19T13:10:18.979Z,19.40
2022-12-19T13:13:14.261Z,19.63
2022-12-19T13:15:45.859Z,20.00
2022-12-19T13:18:34.166Z,20.00
2022-12-19T13:21:08.156Z,20.20
2022-12-19T13:23:52.724Z,19.53
2022-12-19T13:26:47.810Z,19.97
2022-12-19T13:29:35.547Z,19.67
2022-12-19T13:32:15.950Z,19.87
2022-12-19T13:35:05.823Z,20.50
2022-12-19T13:39:57.007Z,19.73
2022-12-19T13:40:59.389Z,19.90
2022-12-19T13:43:46.201Z,21.10
2022-12-19T13:46:33.534Z,24.17
2022-12-19T13:49:08.094Z,35.00
2022-12-19T13:51:50.756Z,31.63
2022-12-19T13:54:32.955Z,24.83
2022-12-19T13:57:27.253Z,26.27
2022-12-19T14:00:01.305Z,28.93
2022-12-19T14:02:46.696Z,30.37
2022-12-19T14:05:48.545Z,22.30
2022-12-19T14:08:20.892Z,18.87
2022-12-19T14:11:36.033Z,20.90
2022-12-19T14:14:12.618Z,19.77
2022-12-19T14:16:45.734Z,20.13
2022-12-19T14:19:23.485Z,19.57
2022-12-19T14:22:11.069Z,18.77
2022-12-19T14:24:41.371Z,19.93
2022-12-19T14:28:26.135Z,19.57
2022-12-19T14:30:27.815Z,19.57
2022-12-19T14:33:45.065Z,20.87
2022-12-19T14:36:10.046Z,20.33
2022-12-19T14:39:22.475Z,19.90
2022-12-19T14:42:01.824Z,19.97
2022-12-19T14:53:17.505Z,20.33
2022-12-19T14:54:11.820Z,20.27
2022-12-19T14:54:25.926Z,18.97
2022-12-19T14:54:26.486Z,18.93
2022-12-19T14:59:03.087Z,19.97
2022-12-19T15:01:34.148Z,19.23
2022-12-19T15:04:48.163Z,20.93
2022-12-19T15:07:11.782Z,20.47
2022-12-19T15:11:03.854Z,19.63
2022-12-19T15:14:54.139Z,19.87
2022-12-19T15:16:05.299Z,20.07
2022-12-19T15:18:41.340Z,20.07
2022-12-19T15:21:14.579Z,19.83
2022-12-19T15:23:45.394Z,19.63
2022-12-19T15:26:18.859Z,20.03
2022-12-19T15:28:50.882Z,19.60
2022-12-19T15:31:29.884Z,18.50
2022-12-19T15:36:47.993Z,18.73
2022-12-19T15:39:16.549Z,19.23
2022-12-19T15:41:46.329Z,19.73
2022-12-19T15:44:18.785Z,19.10
2022-12-19T15:46:49.357Z,19.13
2022-12-19T15:49:19.697Z,19.70
2022-12-19T15:51:50.484Z,19.60
2022-12-19T15:54:48.029Z,20.33
2022-12-19T15:57:19.874Z,19.97
2022-12-19T15:59:48.737Z,19.47
2022-12-19T16:02:22.748Z,20.57
2022-12-19T16:04:56.899Z,21.33
2022-12-19T16:07:31.832Z,20.50
2022-12-19T16:10:00.206Z,17.97
2022-12-19T16:12:37.602Z,18.57
2022-12-19T16:15:07.654Z,18.80
2022-12-19T16:17:35.941Z,19.13
2022-12-19T16:20:04.231Z,19.33
2022-12-19T16:22:33.918Z,19.50
2022-12-19T16:25:02.223Z,19.37
2022-12-19T16:27:32.238Z,19.00
2022-12-19T16:30:18.981Z,19.90
2022-12-19T16:32:48.422Z,19.27
2022-12-19T16:35:29.002Z,17.87
2022-12-19T16:38:09.107Z,17.67
2022-12-19T16:40:37.452Z,19.57
2022-12-19T16:43:08.920Z,19.73
2022-12-19T16:45:39.435Z,20.20
2022-12-19T16:48:19.894Z,19.63
2022-12-19T16:50:48.489Z,18.77
2022-12-19T16:53:18.804Z,20.07
2022-12-19T16:55:48.840Z,21.40
2022-12-19T16:58:27.998Z,20.93
2022-12-19T17:00:56.982Z,21.37
2022-12-19T17:03:40.959Z,19.03
2022-12-19T17:06:19.621Z,18.97
2022-12-19T17:08:49.996Z,19.63
2022-12-19T17:11:22.892Z,19.23
2022-12-19T17:13:53.987Z,18.97
2022-12-19T17:16:22.583Z,19.67
2022-12-19T17:18:51.509Z,18.20
2022-12-19T17:21:22.884Z,19.53
2022-12-19T17:23:52.983Z,18.57
2022-12-19T17:26:21.289Z,18.93
2022-12-19T17:28:49.596Z,18.57
2022-12-19T17:31:23.652Z,18.53
2022-12-19T17:33:52.458Z,18.70
2022-12-19T17:36:25.428Z,20.17
2022-12-19T17:38:56.554Z,19.17
2022-12-19T17:41:25.516Z,19.03
2022-12-19T17:43:54.309Z,24.37
2022-12-19T17:46:24.810Z,21.77
2022-12-19T17:48:54.738Z,21.43
2022-12-19T17:51:24.699Z,22.30
2022-12-19T17:53:53.967Z,24.50
2022-12-19T17:56:23.533Z,22.97
2022-12-19T17:58:51.833Z,19.70
2022-12-19T18:01:21.716Z,20.20
2022-12-19T18:03:52.651Z,20.83
2022-12-19T18:06:21.666Z,21.20
2022-12-19T18:08:49.973Z,20.23
2022-12-19T18:11:21.643Z,18.87
2022-12-19T18:13:52.717Z,20.00
2022-12-19T18:16:24.781Z,18.57
2022-12-19T18:18:53.261Z,18.13
2022-12-19T18:21:24.205Z,19.33
2022-12-19T18:23:52.743Z,17.73
2022-12-19T18:26:21.035Z,17.93
2022-12-19T18:28:50.909Z,18.13
2022-12-19T18:31:25.428Z,18.93
2022-12-19T18:34:00.836Z,19.07
2022-12-19T18:36:38.274Z,18.13
2022-12-19T18:39:19.269Z,17.73
2022-12-19T18:41:47.885Z,17.27
2022-12-19T18:44:17.838Z,18.30
2022-12-19T18:46:47.316Z,17.00
2022-12-19T18:49:17.776Z,18.17
2022-12-19T18:51:46.225Z,19.00
2022-12-19T18:54:15.647Z,18.70
2022-12-19T18:56:44.483Z,18.63
2022-12-19T18:59:13.588Z,19.53
2022-12-19T19:01:47.498Z,18.23
2022-12-19T19:04:17.811Z,17.53
2022-12-19T19:06:51.597Z,18.50
2022-12-19T19:09:22.611Z,18.93
2022-12-19T19:11:53.830Z,16.97
2022-12-19T19:14:22.480Z,17.13
2022-12-19T19:16:52.981Z,17.47
2022-12-19T19:19:21.330Z,17.03
2022-12-19T19:21:49.733Z,17.53
2022-12-19T19:24:20.668Z,18.17
2022-12-19T19:26:49.561Z,17.73
2022-12-19T19:29:19.714Z,17.40
2022-12-19T19:31:52.462Z,17.50
2022-12-19T19:34:26.063Z,17.23
2022-12-19T19:36:56.927Z,18.53
2022-12-19T19:39:25.646Z,18.80
2022-12-19T19:41:56.112Z,17.57
2022-12-19T19:44:24.502Z,18.30
2022-12-19T19:46:54.224Z,20.00
2022-12-19T19:49:23.144Z,18.57
2022-12-19T19:51:54.334Z,19.37
2022-12-19T19:54:26.884Z,19.73
2022-12-19T19:56:55.157Z,18.77
2022-12-19T19:59:23.881Z,18.27
2022-12-19T20:01:54.418Z,18.50
2022-12-19T20:04:23.202Z,19.87
2022-12-19T20:06:51.493Z,22.07
2022-12-19T20:09:19.845Z,19.27
2022-12-19T20:11:48.075Z,20.33
2022-12-19T20:14:16.344Z,20.00
2022-12-19T20:16:44.749Z,17.67
2022-12-19T20:19:15.656Z,17.63
2022-12-19T20:21:44.089Z,18.87
2022-12-19T20:24:12.816Z,18.23
2022-12-19T20:26:41.395Z,18.57
2022-12-19T20:29:11.508Z,19.10
2022-12-19T20:31:40.274Z,16.93
2022-12-19T20:34:08.927Z,18.00
2022-12-19T20:36:38.750Z,19.37
2022-12-19T20:39:07.460Z,18.60
2022-12-19T20:41:35.993Z,18.60
2022-12-19T20:44:04.364Z,18.20
2022-12-19T20:46:32.674Z,17.83
2022-12-19T20:49:01.080Z,19.40
2022-12-19T20:51:29.328Z,17.80
2022-12-19T20:53:59.513Z,18.20
2022-12-19T20:56:28.514Z,18.60
2022-12-19T20:58:56.989Z,19.00
2022-12-19T21:01:50.913Z,18.20
2022-12-19T21:04:26.698Z,17.57
2022-12-19T21:06:55.441Z,19.10
2022-12-19T21:09:25.005Z,18.70
2022-12-19T21:11:53.216Z,17.67
2022-12-19T21:14:37.248Z,18.33
2022-12-19T21:17:05.598Z,16.93
2022-12-19T21:19:33.946Z,18.30
2022-12-19T21:22:02.412Z,18.20
2022-12-19T21:24:33.044Z,16.90
2022-12-19T21:27:01.576Z,20.37
2022-12-19T21:29:29.869Z,18.57
2022-12-19T21:31:58.197Z,19.93
2022-12-19T21:34:26.670Z,18.33
2022-12-19T21:36:55.062Z,18.90
2022-12-19T21:39:25.437Z,18.83
2022-12-19T21:41:55.759Z,19.10
2022-12-19T21:44:24.046Z,18.20
2022-12-19T21:46:52.429Z,17.87
2022-12-19T21:49:21.235Z,17.50
2022-12-19T21:51:49.493Z,18.60
2022-12-19T21:54:17.772Z,18.37
2022-12-19T21:56:46.023Z,17.30
2022-12-19T21:59:18.036Z,17.47
2022-12-19T22:01:46.919Z,17.63
2022-12-19T22:04:17.800Z,18.53
2022-12-19T22:06:46.318Z,19.97
2022-12-19T22:09:17.561Z,19.87
2022-12-19T22:11:46.471Z,18.90
2022-12-19T22:14:17.915Z,20.13
2022-12-19T22:16:46.452Z,21.37
2022-12-19T22:19:17.175Z,20.30
2022-12-19T22:21:46.862Z,20.27
2022-12-19T22:24:17.045Z,19.10
2022-12-19T22:26:45.417Z,20.07
2022-12-19T22:29:18.686Z,18.90
2022-12-19T22:31:47.773Z,19.90
2022-12-19T22:34:18.786Z,18.97
2022-12-19T22:36:47.831Z,18.53
2022-12-19T22:39:19.989Z,17.87
2022-12-19T22:41:48.591Z,17.43
2022-12-19T22:44:21.422Z,18.50
2022-12-19T22:46:51.198Z,18.57
2022-12-19T22:49:19.647Z,18.37
2022-12-19T22:51:47.890Z,18.87
2022-12-19T22:54:16.285Z,18.57
2022-12-19T22:56:44.688Z,17.90
2022-12-19T22:59:13.899Z,18.80
2022-12-19T23:01:44.913Z,16.77
2022-12-19T23:04:22.464Z,17.77
2022-12-19T23:06:50.813Z,17.77
2022-12-19T23:09:20.463Z,19.13
2022-12-19T23:11:50.725Z,17.90
2022-12-19T23:14:21.075Z,18.83
2022-12-19T23:16:51.147Z,18.37
2022-12-19T23:19:19.699Z,21.53
2022-12-19T23:21:48.370Z,23.17
2022-12-19T23:24:16.759Z,21.90
2022-12-19T23:26:45.843Z,20.50
2022-12-19T23:29:16.349Z,19.47
2022-12-19T23:31:47.469Z,19.63
2022-12-19T23:34:18.766Z,18.87
2022-12-19T23:39:36.640Z,18.40
2022-12-19T23:42:05.122Z,19.17
2022-12-19T23:44:33.480Z,18.03
2022-12-19T23:47:03.916Z,18.23
2022-12-19T23:49:34.478Z,18.10
2022-12-19T23:52:02.851Z,19.77
2022-12-19T23:54:31.338Z,20.27
2022-12-19T23:56:59.778Z,19.23
2022-12-19T23:59:28.021Z,17.43
